createdAt,value
2018-09-01T00:00:09.907Z,92.20
2018-09-01T00:02:38.448Z,92.30
2018-09-01T00:05:06.939Z,92.20
2018-09-01T00:07:35.467Z,91.90
2018-09-01T00:10:03.970Z,92.30
2018-09-01T00:12:32.511Z,92.30
2018-09-01T00:15:00.995Z,92.40
2018-09-01T00:17:30.432Z,92.40
2018-09-01T00:20:01.419Z,92.40
2018-09-01T00:22:30.457Z,92.40
2018-09-01T00:24:58.953Z,92.50
2018-09-01T00:27:27.478Z,92.50
2018-09-01T00:29:55.962Z,92.50
2018-09-01T00:32:24.470Z,92.50
2018-09-01T00:34:52.922Z,92.50
2018-09-01T00:37:26.653Z,92.50
2018-09-01T00:39:55.074Z,92.50
2018-09-01T00:42:23.914Z,92.50
2018-09-01T00:44:52.388Z,92.60
2018-09-01T00:47:20.949Z,92.50
2018-09-01T00:49:49.506Z,92.40
2018-09-01T00:52:17.965Z,92.40
2018-09-01T00:54:46.615Z,92.40
2018-09-01T00:57:15.405Z,92.50
2018-09-01T00:59:43.937Z,92.50
2018-09-01T01:02:12.375Z,92.40
2018-09-01T01:04:40.894Z,92.20
2018-09-01T01:07:09.865Z,92.50
2018-09-01T01:09:38.307Z,92.50
2018-09-01T01:12:06.908Z,92.30
2018-09-01T01:14:35.401Z,92.50
2018-09-01T01:17:04.000Z,92.80
2018-09-01T01:19:32.463Z,92.50
2018-09-01T01:22:00.994Z,92.50
2018-09-01T01:24:29.467Z,92.50
2018-09-01T01:26:57.990Z,92.50
2018-09-01T01:29:26.841Z,92.60
2018-09-01T01:31:55.352Z,92.50
2018-09-01T01:34:24.051Z,92.60
2018-09-01T01:36:52.559Z,92.60
2018-09-01T01:39:20.988Z,92.40
2018-09-01T01:41:49.448Z,92.50
2018-09-01T01:44:17.943Z,92.40
2018-09-01T01:46:46.452Z,92.40
2018-09-01T01:49:14.909Z,92.40
2018-09-01T01:51:43.409Z,92.40
2018-09-01T01:54:11.873Z,92.40
2018-09-01T01:56:40.388Z,92.80
2018-09-01T01:59:08.856Z,92.40
2018-09-01T02:01:37.389Z,92.40
2018-09-01T02:04:05.900Z,92.40
2018-09-01T02:06:34.407Z,92.40
2018-09-01T02:09:02.909Z,92.40
2018-09-01T02:11:31.450Z,92.30
2018-09-01T02:13:59.920Z,92.30
2018-09-01T02:16:28.435Z,92.10
2018-09-01T02:18:56.962Z,91.80
2018-09-01T02:21:25.457Z,91.70
2018-09-01T02:23:53.950Z,91.60
2018-09-01T02:26:28.814Z,91.40
2018-09-01T02:28:57.266Z,91.20
2018-09-01T02:31:25.753Z,91.00
2018-09-01T02:33:54.216Z,90.90
2018-09-01T02:36:22.723Z,90.70
2018-09-01T02:38:51.177Z,90.40
2018-09-01T02:41:19.673Z,90.30
2018-09-01T02:43:48.325Z,90.20
2018-09-01T02:46:16.807Z,90.10
2018-09-01T02:48:45.290Z,90.20
2018-09-01T02:51:13.755Z,90.00
2018-09-01T02:53:42.231Z,90.00
2018-09-01T02:56:10.703Z,90.10
2018-09-01T02:58:39.165Z,90.10
2018-09-01T03:01:12.990Z,89.90
2018-09-01T03:03:41.432Z,89.60
2018-09-01T03:06:09.910Z,89.30
2018-09-01T03:08:38.351Z,89.10
2018-09-01T03:11:06.879Z,90.00
2018-09-01T03:13:35.357Z,89.40
2018-09-01T03:16:03.874Z,89.40
2018-09-01T03:18:32.342Z,88.90
2018-09-01T03:21:00.821Z,88.50
2018-09-01T03:23:29.271Z,88.20
2018-09-01T03:25:57.794Z,88.20
2018-09-01T03:28:26.226Z,88.60
2018-09-01T03:30:54.693Z,88.70
2018-09-01T03:33:23.153Z,89.10
2018-09-01T03:35:51.638Z,89.30
2018-09-01T03:38:20.090Z,89.50
2018-09-01T03:40:48.594Z,89.90
2018-09-01T03:43:17.028Z,90.00
2018-09-01T03:45:45.490Z,90.00
2018-09-01T03:48:13.993Z,90.00
2018-09-01T03:50:42.528Z,90.00
2018-09-01T03:53:10.997Z,90.00
2018-09-01T03:55:39.469Z,90.00
2018-09-01T03:58:07.980Z,90.00
2018-09-01T04:00:36.511Z,90.00
2018-09-01T04:03:04.940Z,90.00
2018-09-01T04:05:33.431Z,90.10
2018-09-01T04:08:01.919Z,90.40
2018-09-01T04:10:30.793Z,90.20
2018-09-01T04:12:59.249Z,90.20
2018-09-01T04:15:27.719Z,90.40
2018-09-01T04:17:56.216Z,90.40
2018-09-01T04:20:24.702Z,90.40
2018-09-01T04:22:53.189Z,90.40
2018-09-01T04:25:21.667Z,90.30
2018-09-01T04:27:50.116Z,90.40
2018-09-01T04:30:18.579Z,90.50
2018-09-01T04:32:47.084Z,90.60
2018-09-01T04:35:15.566Z,90.60
2018-09-01T04:37:44.047Z,90.70
2018-09-01T04:40:12.511Z,90.80
2018-09-01T04:42:41.044Z,90.80
2018-09-01T04:45:09.524Z,90.70
2018-09-01T04:47:38.054Z,90.50
2018-09-01T04:50:06.642Z,90.50
2018-09-01T04:52:35.113Z,90.20
2018-09-01T04:55:03.589Z,89.80
2018-09-01T04:57:32.130Z,89.80
2018-09-01T05:00:00.599Z,88.80
2018-09-01T05:02:29.090Z,88.70
2018-09-01T05:04:57.579Z,88.30
2018-09-01T05:07:27.981Z,87.70
2018-09-01T05:09:56.485Z,87.40
2018-09-01T05:12:24.945Z,86.90
2018-09-01T05:14:53.411Z,86.30
2018-09-01T05:17:21.878Z,85.20
2018-09-01T05:19:50.326Z,85.20
2018-09-01T05:22:18.822Z,84.70
2018-09-01T05:24:47.275Z,83.60
2018-09-01T05:27:15.767Z,83.40
2018-09-01T05:29:44.215Z,83.30
2018-09-01T05:32:12.683Z,82.90
2018-09-01T05:34:41.138Z,84.10
2018-09-01T05:37:09.602Z,83.00
2018-09-01T05:39:38.051Z,82.70
2018-09-01T05:42:06.548Z,82.70
2018-09-01T05:44:35.305Z,82.90
2018-09-01T05:47:04.110Z,82.10
2018-09-01T05:49:32.552Z,82.20
2018-09-01T05:52:01.040Z,82.50
2018-09-01T05:54:30.502Z,81.60
2018-09-01T05:56:59.000Z,81.60
2018-09-01T05:59:27.463Z,81.60
2018-09-01T06:01:55.930Z,81.30
2018-09-01T06:04:24.474Z,81.40
2018-09-01T06:06:52.987Z,82.30
2018-09-01T06:09:21.414Z,81.10
2018-09-01T06:11:49.886Z,81.20
2018-09-01T06:14:18.305Z,80.70
2018-09-01T06:16:46.777Z,80.70
2018-09-01T06:19:15.324Z,80.60
2018-09-01T06:21:43.721Z,79.80
2018-09-01T06:24:12.153Z,79.70
2018-09-01T06:26:40.622Z,78.50
2018-09-01T06:29:14.335Z,76.90
2018-09-01T06:31:50.873Z,76.60
2018-09-01T06:34:19.475Z,76.50
2018-09-01T06:36:48.092Z,77.10
2018-09-01T06:39:16.575Z,76.70
2018-09-01T06:41:45.081Z,76.80
2018-09-01T06:44:13.575Z,75.40
2018-09-01T06:46:42.051Z,75.30
2018-09-01T06:49:10.539Z,74.70
2018-09-01T06:51:39.075Z,75.10
2018-09-01T06:54:07.555Z,75.10
2018-09-01T06:56:36.078Z,74.40
2018-09-01T06:59:04.603Z,74.60
2018-09-01T07:01:33.127Z,74.10
2018-09-01T07:04:01.604Z,74.40
2018-09-01T07:06:30.126Z,75.30
2018-09-01T07:08:58.587Z,74.60
2018-09-01T07:11:27.451Z,74.10
2018-09-01T07:13:55.889Z,74.40
2018-09-01T07:16:24.333Z,73.80
2018-09-01T07:18:52.862Z,73.60
2018-09-01T07:21:21.355Z,72.90
2018-09-01T07:23:49.808Z,71.10
2018-09-01T07:26:18.286Z,70.80
2018-09-01T07:28:46.717Z,69.50
2018-09-01T07:31:15.373Z,66.90
2018-09-01T07:33:43.666Z,65.00
2018-09-01T07:36:12.139Z,64.30
2018-09-01T07:38:40.579Z,63.70
2018-09-01T07:41:09.075Z,63.10
2018-09-01T07:43:37.648Z,63.40
2018-09-01T07:46:06.130Z,62.40
2018-09-01T07:48:34.629Z,62.50
2018-09-01T07:51:03.369Z,60.90
2018-09-01T07:53:31.807Z,60.10
2018-09-01T07:56:00.361Z,60.10
2018-09-01T07:58:28.763Z,60.80
2018-09-01T08:00:57.259Z,59.70
2018-09-01T08:03:25.697Z,59.40
2018-09-01T08:05:54.181Z,58.80
2018-09-01T08:08:22.649Z,59.30
2018-09-01T08:10:51.414Z,59.40
2018-09-01T08:13:19.870Z,58.90
2018-09-01T08:15:48.322Z,58.30
2018-09-01T08:18:16.772Z,58.60
2018-09-01T08:20:45.250Z,59.20
2018-09-01T08:23:13.716Z,58.70
2018-09-01T08:25:42.260Z,59.10
2018-09-01T08:28:10.783Z,57.60
2018-09-01T08:30:39.309Z,58.00
2018-09-01T08:33:07.786Z,58.00
2018-09-01T08:35:36.258Z,56.90
2018-09-01T08:38:04.755Z,58.30
2018-09-01T08:40:33.206Z,58.30
2018-09-01T08:43:01.634Z,57.00
2018-09-01T08:45:30.162Z,57.10
2018-09-01T08:47:58.541Z,57.40
2018-09-01T08:50:26.997Z,57.20
2018-09-01T08:52:55.486Z,56.80
2018-09-01T08:55:23.962Z,57.20
2018-09-01T08:57:52.392Z,56.80
2018-09-01T09:00:20.880Z,56.40
2018-09-01T09:02:49.299Z,56.90
2018-09-01T09:05:17.763Z,56.90
2018-09-01T09:07:46.197Z,57.00
2018-09-01T09:10:14.673Z,57.00
2018-09-01T09:12:43.138Z,56.50
2018-09-01T09:15:11.623Z,56.60
2018-09-01T09:17:40.054Z,56.20
2018-09-01T09:20:08.592Z,55.60
2018-09-01T09:22:37.059Z,55.30
2018-09-01T09:25:05.578Z,55.50
2018-09-01T09:27:34.026Z,55.10
2018-09-01T09:30:02.491Z,54.60
2018-09-01T09:32:30.950Z,54.70
2018-09-01T09:34:59.408Z,54.40
2018-09-01T09:37:27.856Z,55.60
2018-09-01T09:39:56.380Z,55.10
2018-09-01T09:42:24.851Z,54.50
2018-09-01T09:44:53.306Z,54.00
2018-09-01T09:47:21.785Z,53.90
2018-09-01T09:49:50.266Z,54.20
2018-09-01T09:52:18.737Z,53.80
2018-09-01T09:54:47.245Z,52.70
2018-09-01T09:57:15.712Z,52.50
2018-09-01T09:59:44.181Z,53.00
2018-09-01T10:02:12.627Z,52.90
2018-09-01T10:04:41.100Z,52.90
2018-09-01T10:07:09.570Z,53.10
2018-09-01T10:09:38.046Z,52.90
2018-09-01T10:12:06.519Z,52.70
2018-09-01T10:14:35.014Z,52.60
2018-09-01T10:17:03.554Z,52.40
2018-09-01T10:19:33.676Z,52.50
2018-09-01T10:22:02.220Z,52.30
2018-09-01T10:24:30.707Z,52.40
2018-09-01T10:26:59.181Z,52.90
2018-09-01T10:29:28.122Z,52.30
2018-09-01T10:31:56.837Z,53.10
2018-09-01T10:34:25.271Z,52.50
2018-09-01T10:36:53.852Z,51.80
2018-09-01T10:39:22.538Z,51.90
2018-09-01T10:41:51.010Z,51.30
2018-09-01T10:44:19.541Z,51.30
2018-09-01T10:46:48.071Z,51.60
2018-09-01T10:49:16.643Z,51.10
2018-09-01T10:51:45.348Z,50.90
2018-09-01T10:54:13.969Z,50.90
2018-09-01T10:56:42.572Z,49.60
2018-09-01T10:59:11.293Z,48.90
2018-09-01T11:01:39.701Z,48.70
2018-09-01T11:04:08.125Z,48.30
2018-09-01T11:06:36.616Z,47.30
2018-09-01T11:09:07.522Z,46.60
2018-09-01T11:11:35.994Z,47.50
2018-09-01T11:14:04.455Z,47.50
2018-09-01T11:16:32.935Z,47.30
2018-09-01T11:19:01.380Z,47.70
2018-09-01T11:21:29.854Z,48.70
2018-09-01T11:23:58.305Z,49.30
2018-09-01T11:26:26.797Z,49.70
2018-09-01T11:28:55.246Z,48.80
2018-09-01T11:31:23.727Z,48.70
2018-09-01T11:33:52.236Z,49.20
2018-09-01T11:36:20.894Z,49.00
2018-09-01T11:38:49.329Z,49.00
2018-09-01T11:41:17.781Z,48.60
2018-09-01T11:43:46.232Z,49.00
2018-09-01T11:46:14.705Z,49.40
2018-09-01T11:48:43.794Z,48.80
2018-09-01T11:51:12.226Z,48.80
2018-09-01T11:53:40.914Z,48.40
2018-09-01T11:56:09.377Z,48.50
2018-09-01T11:58:37.993Z,48.80
2018-09-01T12:01:06.650Z,49.00
2018-09-01T12:03:35.575Z,49.20
2018-09-01T12:06:04.035Z,49.30
2018-09-01T12:08:32.529Z,48.90
2018-09-01T12:11:01.013Z,48.70
2018-09-01T12:13:29.554Z,48.20
2018-09-01T12:15:58.072Z,48.50
2018-09-01T12:18:26.639Z,48.60
2018-09-01T12:20:55.099Z,48.20
2018-09-01T12:23:23.586Z,46.90
2018-09-01T12:25:52.381Z,47.30
2018-09-01T12:28:20.878Z,48.20
2018-09-01T12:30:49.395Z,47.90
2018-09-01T12:33:17.881Z,47.70
2018-09-01T12:35:46.304Z,47.80
2018-09-01T12:38:14.773Z,47.60
2018-09-01T12:40:43.193Z,48.20
2018-09-01T12:43:11.689Z,48.30
2018-09-01T12:45:40.143Z,48.90
2018-09-01T12:48:08.614Z,48.70
2018-09-01T12:50:37.210Z,48.60
2018-09-01T12:53:06.026Z,48.70
2018-09-01T12:55:34.515Z,49.30
2018-09-01T12:58:03.130Z,49.00
2018-09-01T13:00:31.841Z,48.90
2018-09-01T13:03:00.501Z,49.80
2018-09-01T13:05:29.093Z,49.80
2018-09-01T13:07:57.762Z,49.60
2018-09-01T13:10:26.190Z,50.20
2018-09-01T13:12:54.657Z,50.30
2018-09-01T13:15:23.098Z,51.10
2018-09-01T13:17:51.656Z,51.00
2018-09-01T13:20:20.104Z,52.00
2018-09-01T13:22:48.555Z,51.00
2018-09-01T13:25:17.090Z,51.30
2018-09-01T13:27:45.554Z,50.80
2018-09-01T13:30:14.125Z,50.60
2018-09-01T13:32:42.622Z,50.80
2018-09-01T13:35:11.066Z,51.10
2018-09-01T13:37:39.547Z,51.10
2018-09-01T13:40:08.107Z,51.80
2018-09-01T13:42:36.564Z,51.60
2018-09-01T13:45:05.591Z,52.00
2018-09-01T13:47:34.091Z,51.80
2018-09-01T13:50:02.586Z,52.40
2018-09-01T13:52:32.047Z,52.40
2018-09-01T13:55:00.531Z,52.50
2018-09-01T13:57:29.071Z,52.40
2018-09-01T13:59:57.458Z,52.50
2018-09-01T14:02:26.320Z,52.80
2018-09-01T14:04:54.953Z,53.20
2018-09-01T14:07:24.286Z,53.20
2018-09-01T14:09:52.799Z,53.30
2018-09-01T14:12:21.235Z,53.20
2018-09-01T14:14:49.904Z,53.80
2018-09-01T14:17:18.206Z,53.30
2018-09-01T14:19:46.700Z,53.40
2018-09-01T14:22:15.151Z,53.70
2018-09-01T14:24:43.620Z,53.70
2018-09-01T14:27:12.065Z,54.10
2018-09-01T14:29:40.536Z,54.20
2018-09-01T14:32:08.997Z,54.30
2018-09-01T14:34:37.466Z,54.80
2018-09-01T14:37:06.456Z,55.60
2018-09-01T14:39:34.960Z,55.90
2018-09-01T14:42:03.419Z,56.10
2018-09-01T14:44:31.945Z,55.80
2018-09-01T14:47:00.442Z,55.40
2018-09-01T14:49:28.887Z,56.20
2018-09-01T14:51:57.436Z,56.80
2018-09-01T14:54:25.903Z,56.90
2018-09-01T14:56:54.342Z,56.80
2018-09-01T14:59:22.853Z,56.90
2018-09-01T15:01:51.314Z,56.80
2018-09-01T15:04:19.786Z,57.00
2018-09-01T15:06:48.282Z,57.20
2018-09-01T15:09:16.762Z,57.60
2018-09-01T15:11:45.251Z,58.00
2018-09-01T15:14:13.821Z,58.00
2018-09-01T15:16:42.363Z,58.20
2018-09-01T15:19:11.168Z,58.60
2018-09-01T15:21:39.613Z,57.40
2018-09-01T15:24:08.433Z,57.20
2018-09-01T15:26:36.930Z,57.40
2018-09-01T15:29:05.442Z,57.30
2018-09-01T15:31:33.983Z,57.40
2018-09-01T15:34:02.490Z,57.70
2018-09-01T15:36:30.917Z,57.70
2018-09-01T15:38:59.386Z,57.00
2018-09-01T15:41:27.828Z,56.20
2018-09-01T15:43:56.373Z,56.00
2018-09-01T15:46:24.876Z,55.40
2018-09-01T15:48:53.341Z,55.60
2018-09-01T15:51:21.785Z,55.70
2018-09-01T15:53:50.346Z,55.50
2018-09-01T15:56:18.853Z,55.60
2018-09-01T15:58:47.366Z,55.60
2018-09-01T16:01:15.811Z,55.90
2018-09-01T16:03:44.348Z,55.80
2018-09-01T16:06:12.715Z,56.20
2018-09-01T16:08:41.171Z,56.10
2018-09-01T16:11:09.621Z,56.20
2018-09-01T16:13:38.088Z,56.40
2018-09-01T16:16:06.534Z,56.60
2018-09-01T16:18:34.994Z,56.50
2018-09-01T16:21:03.417Z,56.40
2018-09-01T16:23:31.892Z,56.60
2018-09-01T16:26:00.339Z,56.70
2018-09-01T16:28:28.808Z,56.60
2018-09-01T16:30:57.273Z,56.40
2018-09-01T16:33:25.770Z,56.80
2018-09-01T16:35:54.227Z,56.70
2018-09-01T16:38:22.698Z,56.80
2018-09-01T16:40:51.210Z,56.60
2018-09-01T16:43:19.656Z,56.70
2018-09-01T16:45:48.144Z,56.60
2018-09-01T16:48:16.602Z,56.30
2018-09-01T16:50:45.156Z,56.50
2018-09-01T16:53:13.593Z,56.50
2018-09-01T16:55:42.085Z,56.60
2018-09-01T16:58:10.543Z,56.40
2018-09-01T17:00:39.060Z,56.40
2018-09-01T17:03:08.280Z,56.50
2018-09-01T17:05:36.971Z,56.50
2018-09-01T17:08:05.452Z,56.90
2018-09-01T17:10:34.411Z,56.70
2018-09-01T17:13:03.666Z,56.90
2018-09-01T17:15:33.035Z,56.80
2018-09-01T17:18:01.549Z,56.90
2018-09-01T17:20:30.029Z,56.90
2018-09-01T17:22:59.417Z,57.00
2018-09-01T17:25:27.971Z,56.90
2018-09-01T17:27:56.420Z,57.00
2018-09-01T17:30:24.934Z,57.20
2018-09-01T17:32:53.401Z,57.10
2018-09-01T17:35:21.877Z,57.10
2018-09-01T17:37:50.307Z,57.40
2018-09-01T17:40:18.781Z,57.40
2018-09-01T17:42:47.275Z,57.50
2018-09-01T17:45:15.764Z,57.60
2018-09-01T17:47:44.237Z,57.90
2018-09-01T17:50:12.750Z,57.90
2018-09-01T17:52:41.195Z,57.90
2018-09-01T17:55:09.734Z,58.00
2018-09-01T17:57:38.202Z,58.10
2018-09-01T18:00:06.726Z,58.10
2018-09-01T18:02:35.240Z,58.20
2018-09-01T18:05:03.768Z,58.30
2018-09-01T18:07:32.259Z,58.50
2018-09-01T18:10:00.771Z,58.50
2018-09-01T18:12:29.263Z,58.80
2018-09-01T18:14:57.698Z,59.00
2018-09-01T18:17:26.210Z,59.20
2018-09-01T18:19:54.652Z,59.50
2018-09-01T18:22:25.311Z,59.70
2018-09-01T18:24:53.800Z,60.20
2018-09-01T18:27:22.452Z,60.70
2018-09-01T18:29:51.040Z,61.00
2018-09-01T18:32:19.510Z,61.60
2018-09-01T18:34:48.026Z,62.20
2018-09-01T18:37:16.793Z,62.70
2018-09-01T18:39:45.660Z,63.10
2018-09-01T18:42:14.534Z,63.40
2018-09-01T18:44:43.026Z,63.20
2018-09-01T18:47:11.451Z,63.20
2018-09-01T18:49:39.950Z,63.40
2018-09-01T18:52:08.429Z,63.80
2018-09-01T18:54:36.962Z,64.00
2018-09-01T18:57:05.444Z,64.70
2018-09-01T18:59:33.990Z,65.00
2018-09-01T19:02:02.442Z,65.40
2018-09-01T19:04:31.003Z,65.80
2018-09-01T19:06:59.772Z,65.80
2018-09-01T19:09:28.228Z,66.30
2018-09-01T19:11:56.705Z,66.20
2018-09-01T19:14:25.218Z,66.20
2018-09-01T19:16:53.658Z,66.10
2018-09-01T19:19:22.297Z,66.00
2018-09-01T19:21:51.329Z,65.20
2018-09-01T19:24:20.042Z,65.60
2018-09-01T19:26:48.586Z,65.60
2018-09-01T19:29:17.175Z,65.50
2018-09-01T19:31:45.686Z,65.30
2018-09-01T19:34:14.416Z,65.50
2018-09-01T19:36:43.056Z,65.50
2018-09-01T19:39:12.469Z,65.70
2018-09-01T19:41:41.639Z,65.30
2018-09-01T19:44:10.255Z,65.40
2018-09-01T19:46:38.715Z,65.60
2018-09-01T19:49:07.408Z,66.20
2018-09-01T19:51:36.753Z,66.00
2018-09-01T19:54:05.585Z,66.10
2018-09-01T19:56:34.102Z,65.90
2018-09-01T19:59:02.614Z,65.80
2018-09-01T20:01:31.143Z,65.90
2018-09-01T20:03:59.657Z,65.60
2018-09-01T20:06:28.159Z,65.40
2018-09-01T20:08:56.710Z,65.40
2018-09-01T20:11:25.215Z,65.30
2018-09-01T20:13:53.805Z,64.90
2018-09-01T20:16:22.282Z,65.20
2018-09-01T20:18:50.790Z,65.20
2018-09-01T20:21:19.757Z,65.30
2018-09-01T20:23:48.405Z,65.00
2018-09-01T20:26:17.039Z,64.90
2018-09-01T20:28:45.630Z,64.80
2018-09-01T20:31:14.103Z,65.00
2018-09-01T20:33:42.659Z,65.00
2018-09-01T20:36:15.587Z,65.00
2018-09-01T20:38:44.115Z,64.90
2018-09-01T20:41:12.677Z,64.90
2018-09-01T20:43:41.206Z,65.20
2018-09-01T20:46:09.781Z,65.40
2018-09-01T20:48:38.262Z,65.20
2018-09-01T20:51:06.829Z,65.30
2018-09-01T20:53:35.432Z,65.30
2018-09-01T20:56:03.905Z,65.40
2018-09-01T20:58:32.423Z,65.50
2018-09-01T21:01:01.122Z,65.60
2018-09-01T21:03:29.670Z,65.70
2018-09-01T21:05:58.249Z,65.90
2018-09-01T21:08:26.817Z,66.10
2018-09-01T21:10:55.286Z,66.20
2018-09-01T21:13:23.845Z,66.20
2018-09-01T21:15:52.299Z,66.40
2018-09-01T21:18:20.830Z,66.50
2018-09-01T21:20:49.317Z,66.70
2018-09-01T21:23:18.016Z,66.70
2018-09-01T21:25:46.500Z,66.70
2018-09-01T21:28:14.956Z,66.80
2018-09-01T21:30:44.006Z,66.90
2018-09-01T21:33:12.518Z,67.20
2018-09-01T21:35:40.983Z,67.20
2018-09-01T21:38:09.412Z,67.20
2018-09-01T21:40:37.893Z,67.50
2018-09-01T21:43:06.351Z,67.60
2018-09-01T21:45:34.883Z,67.50
2018-09-01T21:48:03.714Z,67.60
2018-09-01T21:50:32.343Z,67.80
2018-09-01T21:53:01.884Z,68.00
2018-09-01T21:55:30.358Z,68.20
2018-09-01T21:57:58.794Z,68.20
2018-09-01T22:00:27.305Z,68.30
2018-09-01T22:02:55.782Z,68.40
2018-09-01T22:05:24.283Z,68.50
2018-09-01T22:07:52.741Z,68.70
2018-09-01T22:10:21.381Z,68.90
2018-09-01T22:12:49.837Z,68.80
2018-09-01T22:15:18.344Z,68.90
2018-09-01T22:17:46.802Z,69.00
2018-09-01T22:20:15.270Z,69.10
2018-09-01T22:22:43.722Z,69.20
2018-09-01T22:25:12.246Z,69.30
2018-09-01T22:27:40.733Z,69.30
2018-09-01T22:30:09.246Z,69.40
2018-09-01T22:32:37.717Z,69.40
2018-09-01T22:35:06.245Z,69.60
2018-09-01T22:37:34.718Z,69.80
2018-09-01T22:40:03.227Z,69.80
2018-09-01T22:42:31.685Z,70.00
2018-09-01T22:45:00.193Z,70.30
2018-09-01T22:47:30.263Z,70.30
2018-09-01T22:49:58.718Z,70.30
2018-09-01T22:52:27.183Z,70.20
2018-09-01T22:54:55.657Z,70.70
2018-09-01T22:57:24.123Z,70.70
2018-09-01T22:59:52.619Z,70.80
2018-09-01T23:02:21.084Z,70.70
2018-09-01T23:04:49.574Z,71.70
2018-09-01T23:07:18.056Z,70.90
2018-09-01T23:09:46.572Z,71.20
2018-09-01T23:12:15.012Z,71.30
2018-09-01T23:14:43.495Z,71.30
2018-09-01T23:17:11.951Z,71.70
2018-09-01T23:19:40.485Z,71.60
2018-09-01T23:22:09.124Z,71.80
2018-09-01T23:24:37.604Z,71.70
2018-09-01T23:27:06.066Z,71.90
2018-09-01T23:29:34.549Z,72.00
2018-09-01T23:32:03.213Z,72.00
2018-09-01T23:34:31.766Z,72.20
2018-09-01T23:37:00.219Z,72.30
2018-09-01T23:39:28.695Z,72.30
2018-09-01T23:41:57.149Z,72.40
2018-09-01T23:44:25.634Z,72.50
2018-09-01T23:46:54.058Z,72.60
2018-09-01T23:49:22.521Z,72.80
2018-09-01T23:51:51.006Z,73.00
2018-09-01T23:54:19.487Z,73.10
2018-09-01T23:56:47.938Z,74.00
2018-09-01T23:59:16.415Z,73.30
